sensor_id;sensor_type;location;lat;lon;timestamp;pressure;altitude;pressure_sealevel;temperature;humidity
63405;BME280;49541;57.840;12.306;2023-02-19T00:03:05;100014.84;;;2.14;54.88
63405;BME280;49541;57.840;12.306;2023-02-19T00:08:05;100025.50;;;1.82;56.60
63405;BME280;49541;57.840;12.306;2023-02-19T00:13:06;100031.53;;;1.98;55.95
63405;BME280;49541;57.840;12.306;2023-02-19T00:18:06;100024.41;;;2.15;54.99
63405;BME280;49541;57.840;12.306;2023-02-19T00:23:06;100027.91;;;2.15;54.61
63405;BME280;49541;57.840;12.306;2023-02-19T00:28:06;100024.41;;;2.15;54.68
63405;BME280;49541;57.840;12.306;2023-02-19T00:33:06;100022.25;;;2.21;53.97
63405;BME280;49541;57.840;12.306;2023-02-19T00:38:07;100028.53;;;2.19;53.87
63405;BME280;49541;57.840;12.306;2023-02-19T00:43:07;100020.28;;;1.96;54.33
63405;BME280;49541;57.840;12.306;2023-02-19T00:48:07;100025.69;;;1.79;53.99
63405;BME280;49541;57.840;12.306;2023-02-19T00:53:08;100022.25;;;2.07;53.82
63405;BME280;49541;57.840;12.306;2023-02-19T00:58:08;100023.91;;;1.79;53.95
63405;BME280;49541;57.840;12.306;2023-02-19T01:03:08;100028.34;;;2.08;52.90
63405;BME280;49541;57.840;12.306;2023-02-19T01:08:08;100037.66;;;2.13;53.15
63405;BME280;49541;57.840;12.306;2023-02-19T01:13:08;100044.84;;;1.35;55.21
63405;BME280;49541;57.840;12.306;2023-02-19T01:18:09;100047.84;;;0.81;58.04
63405;BME280;49541;57.840;12.306;2023-02-19T01:23:10;100045.53;;;1.38;56.64
63405;BME280;49541;57.840;12.306;2023-02-19T01:28:10;100047.41;;;1.20;56.97
63405;BME280;49541;57.840;12.306;2023-02-19T01:33:11;100032.72;;;0.86;58.28
63405;BME280;49541;57.840;12.306;2023-02-19T01:38:11;100042.78;;;1.56;56.53
63405;BME280;49541;57.840;12.306;2023-02-19T01:43:14;100041.69;;;1.44;56.20
63405;BME280;49541;57.840;12.306;2023-02-19T01:48:20;100037.44;;;1.57;55.31
63405;BME280;49541;57.840;12.306;2023-02-19T01:53:24;100043.75;;;2.14;53.41
63405;BME280;49541;57.840;12.306;2023-02-19T01:58:27;100035.03;;;1.38;55.50
63405;BME280;49541;57.840;12.306;2023-02-19T02:03:29;100047.22;;;0.60;58.43
63405;BME280;49541;57.840;12.306;2023-02-19T02:08:30;100050.78;;;0.26;59.78
63405;BME280;49541;57.840;12.306;2023-02-19T02:13:49;100054.06;;;0.47;59.29
63405;BME280;49541;57.840;12.306;2023-02-19T02:18:57;100056.63;;;1.28;57.13
63405;BME280;49541;57.840;12.306;2023-02-19T02:29:24;100064.59;;;0.78;58.62
63405;BME280;49541;57.840;12.306;2023-02-19T02:34:33;100061.34;;;0.57;59.24
63405;BME280;49541;57.840;12.306;2023-02-19T02:39:38;100064.66;;;0.61;59.16
63405;BME280;49541;57.840;12.306;2023-02-19T02:44:40;100065.56;;;0.11;60.75
63405;BME280;49541;57.840;12.306;2023-02-19T02:49:41;100073.34;;;-0.23;61.57
63405;BME280;49541;57.840;12.306;2023-02-19T02:55:01;100080.03;;;-0.34;62.22
63405;BME280;49541;57.840;12.306;2023-02-19T03:00:04;100087.72;;;-0.49;62.35
63405;BME280;49541;57.840;12.306;2023-02-19T03:05:06;100085.28;;;0.01;60.66
63405;BME280;49541;57.840;12.306;2023-02-19T03:10:31;100098.44;;;-0.01;60.14
63405;BME280;49541;57.840;12.306;2023-02-19T03:15:34;100109.22;;;-0.61;62.28
63405;BME280;49541;57.840;12.306;2023-02-19T03:20:55;100111.88;;;-0.09;61.53
63405;BME280;49541;57.840;12.306;2023-02-19T03:25:56;100118.50;;;-0.36;61.14
63405;BME280;49541;57.840;12.306;2023-02-19T03:31:02;100116.97;;;-0.40;62.46
63405;BME280;49541;57.840;12.306;2023-02-19T03:36:03;100114.94;;;0.34;59.37
63405;BME280;49541;57.840;12.306;2023-02-19T03:41:08;100127.59;;;0.26;59.30
63405;BME280;49541;57.840;12.306;2023-02-19T03:51:41;100137.66;;;0.51;58.45
63405;BME280;49541;57.840;12.306;2023-02-19T03:56:45;100142.63;;;0.23;59.50
63405;BME280;49541;57.840;12.306;2023-02-19T04:01:48;100143.47;;;0.23;59.43
63405;BME280;49541;57.840;12.306;2023-02-19T04:06:54;100148.47;;;-0.07;60.33
63405;BME280;49541;57.840;12.306;2023-02-19T04:11:55;100142.69;;;0.21;59.34
63405;BME280;49541;57.840;12.306;2023-02-19T04:16:58;100152.56;;;0.16;59.20
63405;BME280;49541;57.840;12.306;2023-02-19T04:22:00;100161.06;;;-0.52;60.33
63405;BME280;49541;57.840;12.306;2023-02-19T04:27:00;100154.81;;;-0.30;60.38
63405;BME280;49541;57.840;12.306;2023-02-19T04:32:01;100156.72;;;-0.70;61.92
63405;BME280;49541;57.840;12.306;2023-02-19T04:37:01;100169.56;;;-0.47;61.91
63405;BME280;49541;57.840;12.306;2023-02-19T04:42:02;100185.09;;;-0.25;60.75
63405;BME280;49541;57.840;12.306;2023-02-19T04:47:02;100193.19;;;-0.48;61.90
63405;BME280;49541;57.840;12.306;2023-02-19T04:52:02;100191.44;;;-0.30;61.00
63405;BME280;49541;57.840;12.306;2023-02-19T04:57:03;100199.41;;;-0.51;61.70
63405;BME280;49541;57.840;12.306;2023-02-19T05:02:03;100205.88;;;0.32;59.02
63405;BME280;49541;57.840;12.306;2023-02-19T05:07:03;100213.78;;;0.31;58.89
63405;BME280;49541;57.840;12.306;2023-02-19T05:12:04;100220.56;;;0.17;58.89
63405;BME280;49541;57.840;12.306;2023-02-19T05:17:04;100233.91;;;0.30;57.88
63405;BME280;49541;57.840;12.306;2023-02-19T05:22:04;100249.47;;;0.33;58.03
63405;BME280;49541;57.840;12.306;2023-02-19T05:27:04;100251.59;;;0.60;56.91
63405;BME280;49541;57.840;12.306;2023-02-19T05:32:04;100254.63;;;0.52;57.39
63405;BME280;49541;57.840;12.306;2023-02-19T05:37:05;100242.38;;;0.35;58.27
63405;BME280;49541;57.840;12.306;2023-02-19T05:42:05;100239.16;;;0.30;58.33
63405;BME280;49541;57.840;12.306;2023-02-19T05:47:05;100247.38;;;-0.14;59.85
63405;BME280;49541;57.840;12.306;2023-02-19T05:52:05;100257.19;;;0.00;59.73
63405;BME280;49541;57.840;12.306;2023-02-19T05:57:05;100261.63;;;0.34;58.59
63405;BME280;49541;57.840;12.306;2023-02-19T06:02:06;100275.66;;;0.33;58.21
63405;BME280;49541;57.840;12.306;2023-02-19T06:07:06;100275.94;;;0.27;57.49
63405;BME280;49541;57.840;12.306;2023-02-19T06:12:06;100290.13;;;0.58;57.06
63405;BME280;49541;57.840;12.306;2023-02-19T06:17:07;100288.00;;;0.66;56.06
63405;BME280;49541;57.840;12.306;2023-02-19T06:22:07;100289.84;;;0.47;56.24
63405;BME280;49541;57.840;12.306;2023-02-19T06:27:07;100299.22;;;0.51;56.03
63405;BME280;49541;57.840;12.306;2023-02-19T06:32:08;100305.56;;;0.64;55.25
63405;BME280;49541;57.840;12.306;2023-02-19T06:37:08;100301.50;;;0.76;55.37
63405;BME280;49541;57.840;12.306;2023-02-19T06:42:08;100300.78;;;0.90;54.51
63405;BME280;49541;57.840;12.306;2023-02-19T06:47:08;100310.13;;;0.60;55.08
63405;BME280;49541;57.840;12.306;2023-02-19T06:52:09;100309.72;;;0.51;55.55
63405;BME280;49541;57.840;12.306;2023-02-19T06:57:09;100310.91;;;1.31;54.02
63405;BME280;49541;57.840;12.306;2023-02-19T07:02:10;100309.25;;;0.77;54.97
63405;BME280;49541;57.840;12.306;2023-02-19T07:07:10;100309.66;;;0.87;55.72
63405;BME280;49541;57.840;12.306;2023-02-19T07:12:11;100320.59;;;0.43;57.85
63405;BME280;49541;57.840;12.306;2023-02-19T07:17:11;100324.03;;;0.26;58.56
63405;BME280;49541;57.840;12.306;2023-02-19T07:22:11;100338.91;;;0.07;59.50
63405;BME280;49541;57.840;12.306;2023-02-19T07:27:11;100353.47;;;-0.45;61.14
63405;BME280;49541;57.840;12.306;2023-02-19T07:32:11;100346.72;;;-0.50;62.27
63405;BME280;49541;57.840;12.306;2023-02-19T07:37:11;100357.38;;;-0.34;62.44
63405;BME280;49541;57.840;12.306;2023-02-19T07:42:12;100360.56;;;-0.28;62.80
63405;BME280;49541;57.840;12.306;2023-02-19T07:47:12;100368.91;;;-0.38;63.65
63405;BME280;49541;57.840;12.306;2023-02-19T07:52:12;100369.75;;;-0.19;63.54
63405;BME280;49541;57.840;12.306;2023-02-19T07:57:12;100364.88;;;-0.08;64.28
63405;BME280;49541;57.840;12.306;2023-02-19T08:02:17;100368.59;;;0.25;63.14
63405;BME280;49541;57.840;12.306;2023-02-19T08:07:36;100374.59;;;0.46;62.67
63405;BME280;49541;57.840;12.306;2023-02-19T08:12:36;100393.91;;;0.79;61.54
63405;BME280;49541;57.840;12.306;2023-02-19T08:17:55;100403.66;;;1.12;60.84
63405;BME280;49541;57.840;12.306;2023-02-19T08:22:55;100396.81;;;1.60;59.12
63405;BME280;49541;57.840;12.306;2023-02-19T08:27:55;100398.56;;;1.77;58.66
63405;BME280;49541;57.840;12.306;2023-02-19T08:32:56;100396.84;;;1.76;59.16
63405;BME280;49541;57.840;12.306;2023-02-19T08:37:57;100396.84;;;2.41;56.59
63405;BME280;49541;57.840;12.306;2023-02-19T08:43:04;100390.88;;;2.38;56.00
63405;BME280;49541;57.840;12.306;2023-02-19T08:48:05;100399.59;;;2.70;54.92
63405;BME280;49541;57.840;12.306;2023-02-19T08:53:05;100431.00;;;2.41;55.74
63405;BME280;49541;57.840;12.306;2023-02-19T08:58:05;100423.94;;;2.58;55.86
63405;BME280;49541;57.840;12.306;2023-02-19T09:03:06;100418.41;;;2.78;54.20
63405;BME280;49541;57.840;12.306;2023-02-19T09:08:06;100419.75;;;2.85;53.55
63405;BME280;49541;57.840;12.306;2023-02-19T09:13:06;100422.66;;;2.49;53.23
63405;BME280;49541;57.840;12.306;2023-02-19T09:18:06;100427.34;;;3.06;51.43
63405;BME280;49541;57.840;12.306;2023-02-19T09:23:07;100429.34;;;2.86;52.04
63405;BME280;49541;57.840;12.306;2023-02-19T09:28:07;100432.59;;;3.51;50.88
63405;BME280;49541;57.840;12.306;2023-02-19T09:33:07;100433.69;;;4.05;48.46
63405;BME280;49541;57.840;12.306;2023-02-19T09:38:08;100442.31;;;4.36;46.80
63405;BME280;49541;57.840;12.306;2023-02-19T09:43:16;100452.72;;;3.96;47.28
63405;BME280;49541;57.840;12.306;2023-02-19T09:48:18;100455.69;;;3.76;48.26
63405;BME280;49541;57.840;12.306;2023-02-19T09:53:19;100454.88;;;4.18;46.48
63405;BME280;49541;57.840;12.306;2023-02-19T09:58:23;100467.38;;;4.43;45.45
63405;BME280;49541;57.840;12.306;2023-02-19T10:08:30;100480.34;;;4.46;42.31
63405;BME280;49541;57.840;12.306;2023-02-19T10:13:32;100490.53;;;5.07;41.34
63405;BME280;49541;57.840;12.306;2023-02-19T10:18:40;100493.91;;;4.55;41.56
63405;BME280;49541;57.840;12.306;2023-02-19T10:23:41;100495.56;;;4.70;41.60
63405;BME280;49541;57.840;12.306;2023-02-19T10:28:42;100502.56;;;4.28;42.21
63405;BME280;49541;57.840;12.306;2023-02-19T10:38:51;100484.91;;;4.99;41.97
63405;BME280;49541;57.840;12.306;2023-02-19T10:43:59;100496.91;;;5.44;42.86
63405;BME280;49541;57.840;12.306;2023-02-19T10:49:06;100509.63;;;5.38;42.66
63405;BME280;49541;57.840;12.306;2023-02-19T10:54:19;100510.75;;;4.93;43.93
63405;BME280;49541;57.840;12.306;2023-02-19T10:59:24;100501.31;;;5.04;44.04
63405;BME280;49541;57.840;12.306;2023-02-19T11:04:25;100505.19;;;5.25;43.38
63405;BME280;49541;57.840;12.306;2023-02-19T11:09:27;100509.63;;;5.38;43.73
63405;BME280;49541;57.840;12.306;2023-02-19T11:14:30;100494.56;;;4.85;44.51
63405;BME280;49541;57.840;12.306;2023-02-19T11:19:35;100481.81;;;4.92;45.29
63405;BME280;49541;57.840;12.306;2023-02-19T11:24:36;100472.53;;;5.66;44.18
63405;BME280;49541;57.840;12.306;2023-02-19T11:29:37;100453.44;;;6.51;41.96
63405;BME280;49541;57.840;12.306;2023-02-19T11:34:37;100463.00;;;7.02;41.00
63405;BME280;49541;57.840;12.306;2023-02-19T11:39:45;100468.03;;;6.56;41.28
63405;BME280;49541;57.840;12.306;2023-02-19T11:50:12;100466.81;;;5.60;41.18
63405;BME280;49541;57.840;12.306;2023-02-19T11:55:33;100478.09;;;5.49;41.61
63405;BME280;49541;57.840;12.306;2023-02-19T12:00:42;100453.38;;;5.50;42.13
63405;BME280;49541;57.840;12.306;2023-02-19T12:05:47;100444.63;;;5.88;42.54
63405;BME280;49541;57.840;12.306;2023-02-19T12:10:58;100432.56;;;5.84;43.60
63405;BME280;49541;57.840;12.306;2023-02-19T12:16:04;100439.75;;;5.56;45.52
63405;BME280;49541;57.840;12.306;2023-02-19T12:21:20;100433.63;;;5.43;46.85
63405;BME280;49541;57.840;12.306;2023-02-19T12:26:23;100437.06;;;5.30;47.79
63405;BME280;49541;57.840;12.306;2023-02-19T12:42:09;100434.41;;;4.36;59.59
63405;BME280;49541;57.840;12.306;2023-02-19T12:47:18;100438.28;;;4.16;62.82
63405;BME280;49541;57.840;12.306;2023-02-19T12:52:21;100421.72;;;4.56;63.94
63405;BME280;49541;57.840;12.306;2023-02-19T12:57:24;100419.78;;;4.45;68.61
63405;BME280;49541;57.840;12.306;2023-02-19T13:12:33;100401.22;;;3.76;76.10
63405;BME280;49541;57.840;12.306;2023-02-19T13:17:45;100408.47;;;4.01;76.42
63405;BME280;49541;57.840;12.306;2023-02-19T13:22:51;100401.03;;;4.08;76.96
63405;BME280;49541;57.840;12.306;2023-02-19T13:38:25;100394.75;;;3.96;76.43
63405;BME280;49541;57.840;12.306;2023-02-19T13:43:26;100386.47;;;3.59;77.77
63405;BME280;49541;57.840;12.306;2023-02-19T13:48:31;100385.91;;;3.68;77.58
63405;BME280;49541;57.840;12.306;2023-02-19T13:58:51;100373.50;;;3.71;77.95
63405;BME280;49541;57.840;12.306;2023-02-19T14:03:53;100374.38;;;4.27;77.27
63405;BME280;49541;57.840;12.306;2023-02-19T14:08:55;100382.06;;;4.30;77.34
63405;BME280;49541;57.840;12.306;2023-02-19T14:13:56;100380.19;;;4.59;74.77
63405;BME280;49541;57.840;12.306;2023-02-19T14:18:57;100367.50;;;4.24;77.32
63405;BME280;49541;57.840;12.306;2023-02-19T14:23:57;100366.53;;;4.25;78.15
63405;BME280;49541;57.840;12.306;2023-02-19T14:28:59;100369.13;;;4.54;76.49
63405;BME280;49541;57.840;12.306;2023-02-19T14:34:04;100373.56;;;4.93;75.02
63405;BME280;49541;57.840;12.306;2023-02-19T14:44:06;100377.19;;;5.18;73.49
63405;BME280;49541;57.840;12.306;2023-02-19T14:49:17;100368.75;;;5.13;71.71
63405;BME280;49541;57.840;12.306;2023-02-19T14:54:20;100382.06;;;4.71;73.61
63405;BME280;49541;57.840;12.306;2023-02-19T14:59:28;100389.69;;;4.62;75.43
63405;BME280;49541;57.840;12.306;2023-02-19T15:04:34;100370.22;;;4.37;75.83
63405;BME280;49541;57.840;12.306;2023-02-19T15:09:36;100365.94;;;4.89;74.42
63405;BME280;49541;57.840;12.306;2023-02-19T15:14:37;100361.56;;;5.15;73.40
63405;BME280;49541;57.840;12.306;2023-02-19T15:19:38;100344.03;;;5.01;73.95
63405;BME280;49541;57.840;12.306;2023-02-19T15:24:42;100333.44;;;4.48;75.51
63405;BME280;49541;57.840;12.306;2023-02-19T15:29:49;100336.72;;;4.52;76.30
63405;BME280;49541;57.840;12.306;2023-02-19T15:34:57;100332.91;;;4.43;76.10
63405;BME280;49541;57.840;12.306;2023-02-19T15:39:59;100327.44;;;4.86;75.08
63405;BME280;49541;57.840;12.306;2023-02-19T15:45:05;100338.19;;;4.83;75.96
63405;BME280;49541;57.840;12.306;2023-02-19T15:55:22;100342.91;;;3.97;80.19
63405;BME280;49541;57.840;12.306;2023-02-19T16:00:31;100344.88;;;4.62;79.61
63405;BME280;49541;57.840;12.306;2023-02-19T16:05:34;100346.88;;;4.71;78.13
63405;BME280;49541;57.840;12.306;2023-02-19T16:10:38;100332.44;;;4.64;78.28
63405;BME280;49541;57.840;12.306;2023-02-19T16:15:39;100324.81;;;4.32;78.69
63405;BME280;49541;57.840;12.306;2023-02-19T16:20:39;100316.72;;;4.75;78.08
63405;BME280;49541;57.840;12.306;2023-02-19T16:25:45;100321.19;;;4.87;76.56
63405;BME280;49541;57.840;12.306;2023-02-19T16:30:53;100323.13;;;5.11;75.63
63405;BME280;49541;57.840;12.306;2023-02-19T16:35:54;100320.75;;;4.81;76.62
63405;BME280;49541;57.840;12.306;2023-02-19T16:41:04;100315.25;;;4.58;77.08
63405;BME280;49541;57.840;12.306;2023-02-19T16:46:06;100305.63;;;4.57;79.10
63405;BME280;49541;57.840;12.306;2023-02-19T16:51:07;100306.19;;;4.75;77.61
63405;BME280;49541;57.840;12.306;2023-02-19T16:56:14;100298.38;;;4.61;78.10
63405;BME280;49541;57.840;12.306;2023-02-19T17:01:15;100283.78;;;4.28;80.07
63405;BME280;49541;57.840;12.306;2023-02-19T17:06:15;100274.41;;;4.64;78.98
63405;BME280;49541;57.840;12.306;2023-02-19T17:11:15;100281.44;;;4.50;79.86
63405;BME280;49541;57.840;12.306;2023-02-19T17:16:20;100296.72;;;4.85;80.31
63405;BME280;49541;57.840;12.306;2023-02-19T17:21:21;100289.91;;;5.84;79.23
63405;BME280;49541;57.840;12.306;2023-02-19T17:26:23;100280.16;;;5.84;79.50
63405;BME280;49541;57.840;12.306;2023-02-19T17:31:24;100279.59;;;5.68;81.17
63405;BME280;49541;57.840;12.306;2023-02-19T17:36:26;100277.31;;;5.12;84.32
63405;BME280;49541;57.840;12.306;2023-02-19T17:41:27;100282.81;;;5.09;85.71
63405;BME280;49541;57.840;12.306;2023-02-19T17:46:27;100283.63;;;4.97;87.29
63405;BME280;49541;57.840;12.306;2023-02-19T17:51:27;100269.91;;;4.91;88.61
63405;BME280;49541;57.840;12.306;2023-02-19T17:56:27;100268.53;;;4.99;88.49
63405;BME280;49541;57.840;12.306;2023-02-19T18:01:28;100268.97;;;5.18;88.08
63405;BME280;49541;57.840;12.306;2023-02-19T18:06:28;100260.59;;;5.37;86.80
63405;BME280;49541;57.840;12.306;2023-02-19T18:11:28;100255.25;;;5.26;86.71
63405;BME280;49541;57.840;12.306;2023-02-19T18:16:28;100251.44;;;5.30;86.60
63405;BME280;49541;57.840;12.306;2023-02-19T18:21:29;100240.03;;;5.42;86.55
63405;BME280;49541;57.840;12.306;2023-02-19T18:26:29;100245.06;;;5.58;85.62
63405;BME280;49541;57.840;12.306;2023-02-19T18:31:32;100252.47;;;5.53;85.75
63405;BME280;49541;57.840;12.306;2023-02-19T18:36:32;100265.81;;;5.75;85.04
63405;BME280;49541;57.840;12.306;2023-02-19T18:41:33;100275.47;;;5.64;84.84
63405;BME280;49541;57.840;12.306;2023-02-19T18:46:33;100283.44;;;5.51;84.80
63405;BME280;49541;57.840;12.306;2023-02-19T18:51:33;100284.28;;;5.39;85.63
63405;BME280;49541;57.840;12.306;2023-02-19T18:56:42;100281.66;;;5.13;86.64
63405;BME280;49541;57.840;12.306;2023-02-19T19:01:43;100283.03;;;5.19;87.04
63405;BME280;49541;57.840;12.306;2023-02-19T19:06:43;100275.94;;;5.32;85.67
63405;BME280;49541;57.840;12.306;2023-02-19T19:11:43;100279.00;;;5.13;85.68
63405;BME280;49541;57.840;12.306;2023-02-19T19:16:45;100274.38;;;5.17;85.96
63405;BME280;49541;57.840;12.306;2023-02-19T19:21:49;100261.69;;;4.96;86.04
63405;BME280;49541;57.840;12.306;2023-02-19T19:26:50;100265.59;;;5.16;85.03
63405;BME280;49541;57.840;12.306;2023-02-19T19:31:51;100259.03;;;5.34;84.67
63405;BME280;49541;57.840;12.306;2023-02-19T19:36:51;100262.19;;;5.27;83.75
63405;BME280;49541;57.840;12.306;2023-02-19T19:41:52;100267.59;;;5.25;84.03
63405;BME280;49541;57.840;12.306;2023-02-19T19:46:52;100254.50;;;5.11;84.00
63405;BME280;49541;57.840;12.306;2023-02-19T19:51:54;100251.22;;;5.07;84.47
63405;BME280;49541;57.840;12.306;2023-02-19T19:56:56;100240.66;;;5.07;84.86
63405;BME280;49541;57.840;12.306;2023-02-19T20:01:56;100232.13;;;5.29;83.48
63405;BME280;49541;57.840;12.306;2023-02-19T20:06:57;100227.94;;;5.01;84.32
63405;BME280;49541;57.840;12.306;2023-02-19T20:11:57;100222.19;;;4.82;85.28
63405;BME280;49541;57.840;12.306;2023-02-19T20:16:58;100235.69;;;4.64;85.58
63405;BME280;49541;57.840;12.306;2023-02-19T20:21:58;100227.50;;;4.69;85.42
63405;BME280;49541;57.840;12.306;2023-02-19T20:26:59;100216.72;;;4.72;84.34
63405;BME280;49541;57.840;12.306;2023-02-19T20:32:01;100217.22;;;4.64;84.95
63405;BME280;49541;57.840;12.306;2023-02-19T20:37:02;100211.63;;;4.43;84.96
63405;BME280;49541;57.840;12.306;2023-02-19T20:42:03;100211.38;;;4.34;85.48
63405;BME280;49541;57.840;12.306;2023-02-19T20:47:03;100209.75;;;4.45;85.06
63405;BME280;49541;57.840;12.306;2023-02-19T20:52:05;100201.00;;;4.70;84.32
63405;BME280;49541;57.840;12.306;2023-02-19T20:57:05;100206.41;;;4.69;85.71
63405;BME280;49541;57.840;12.306;2023-02-19T21:02:07;100197.91;;;4.51;87.29
63405;BME280;49541;57.840;12.306;2023-02-19T21:07:08;100202.78;;;4.57;88.29
63405;BME280;49541;57.840;12.306;2023-02-19T21:12:08;100189.69;;;4.56;89.60
63405;BME280;49541;57.840;12.306;2023-02-19T21:17:08;100202.28;;;4.65;90.04
63405;BME280;49541;57.840;12.306;2023-02-19T21:22:08;100178.97;;;4.71;90.06
63405;BME280;49541;57.840;12.306;2023-02-19T21:27:09;100158.94;;;4.69;90.01
63405;BME280;49541;57.840;12.306;2023-02-19T21:32:09;100155.09;;;4.60;90.96
63405;BME280;49541;57.840;12.306;2023-02-19T21:37:09;100166.84;;;4.69;91.04
63405;BME280;49541;57.840;12.306;2023-02-19T21:42:10;100161.66;;;4.67;90.20
63405;BME280;49541;57.840;12.306;2023-02-19T21:47:10;100159.22;;;4.77;89.39
63405;BME280;49541;57.840;12.306;2023-02-19T21:52:13;100147.31;;;4.84;89.40
63405;BME280;49541;57.840;12.306;2023-02-19T21:57:14;100142.22;;;4.81;89.15
63405;BME280;49541;57.840;12.306;2023-02-19T22:02:14;100137.69;;;4.70;89.40
63405;BME280;49541;57.840;12.306;2023-02-19T22:07:14;100125.34;;;4.71;89.79
63405;BME280;49541;57.840;12.306;2023-02-19T22:12:14;100130.63;;;4.84;89.32
63405;BME280;49541;57.840;12.306;2023-02-19T22:17:15;100118.13;;;4.99;88.22
63405;BME280;49541;57.840;12.306;2023-02-19T22:22:15;100107.84;;;4.83;88.77
63405;BME280;49541;57.840;12.306;2023-02-19T22:27:15;100104.47;;;4.81;88.97
63405;BME280;49541;57.840;12.306;2023-02-19T22:32:15;100086.97;;;4.80;89.17
63405;BME280;49541;57.840;12.306;2023-02-19T22:37:15;100077.03;;;4.83;88.84
63405;BME280;49541;57.840;12.306;2023-02-19T22:42:15;100071.16;;;4.67;89.26
63405;BME280;49541;57.840;12.306;2023-02-19T22:47:18;100052.97;;;4.75;89.72
63405;BME280;49541;57.840;12.306;2023-02-19T22:52:19;100045.94;;;4.63;88.57
63405;BME280;49541;57.840;12.306;2023-02-19T22:57:19;100019.19;;;4.56;88.77
63405;BME280;49541;57.840;12.306;2023-02-19T23:02:19;99994.16;;;4.62;87.94
63405;BME280;49541;57.840;12.306;2023-02-19T23:07:19;99982.78;;;4.48;88.30
63405;BME280;49541;57.840;12.306;2023-02-19T23:12:20;99981.69;;;4.64;88.42
63405;BME280;49541;57.840;12.306;2023-02-19T23:17:20;99972.47;;;4.45;88.42
63405;BME280;49541;57.840;12.306;2023-02-19T23:22:20;99961.13;;;4.19;90.42
63405;BME280;49541;57.840;12.306;2023-02-19T23:27:20;99942.44;;;4.35;90.96
63405;BME280;49541;57.840;12.306;2023-02-19T23:32:23;99912.00;;;4.31;91.68
63405;BME280;49541;57.840;12.306;2023-02-19T23:37:23;99907.00;;;4.39;91.79
63405;BME280;49541;57.840;12.306;2023-02-19T23:42:23;99886.47;;;4.31;92.45
63405;BME280;49541;57.840;12.306;2023-02-19T23:47:23;99898.44;;;4.48;93.10
63405;BME280;49541;57.840;12.306;2023-02-19T23:52:25;99871.78;;;4.40;92.43
63405;BME280;49541;57.840;12.306;2023-02-19T23:57:25;99862.25;;;4.26;93.23
